Time;durP1;ratioP1;P1;durP2;ratioP2;P2;SDS_P1;SDS_P2;PMS_P1;PMS_P2;Temp;Humidity;BMP_temperature;BMP_pressure;BME280_temperature;BME280_humidity;BME280_pressure;Samples;Min_cycle;Max_cycle;Signal;HPM_P1;HPM_P2
2022/08/06 00:02:08;;;;;;;4.65;3.25;;;;;;;;;;5101445;28;20069;-73
2022/08/06 00:04:34;;;;;;;7.78;3.47;;;;;;;;;;5114010;28;20039;-73
2022/08/06 00:07:00;;;;;;;6.70;3.67;;;;;;;;;;5113899;28;20047;-73
2022/08/06 00:09:30;;;;;;;5.70;3.30;;;;;;;;;;5094429;28;20403;-73
2022/08/06 00:12:04;;;;;;;6.20;3.20;;;;;;;;;;5105452;28;20027;-73
2022/08/06 00:14:30;;;;;;;7.72;3.45;;;;;;;;;;5101770;28;20308;-73
2022/08/06 00:16:57;;;;;;;5.53;3.05;;;;;;;;;;5094454;28;20044;-73
2022/08/06 00:19:23;;;;;;;7.93;3.53;;;;;;;;;;5094269;28;20036;-73
2022/08/06 00:21:50;;;;;;;8.43;4.43;;;;;;;;;;5094492;28;20040;-73
2022/08/06 00:24:16;;;;;;;7.95;3.53;;;;;;;;;;5094532;28;20047;-73
2022/08/06 00:26:42;;;;;;;7.78;3.03;;;;;;;;;;5094930;28;20189;-73
2022/08/06 00:29:08;;;;;;;8.02;3.20;;;;;;;;;;5094410;28;20081;-73
2022/08/06 00:31:34;;;;;;;5.32;3.25;;;;;;;;;;5094251;28;20036;-73
2022/08/06 00:34:02;;;;;;;6.20;2.70;;;;;;;;;;5094707;28;20205;-73
2022/08/06 00:36:29;;;;;;;7.57;2.90;;;;;;;;;;5094085;28;20067;-73
2022/08/06 00:38:56;;;;;;;5.63;2.83;;;;;;;;;;5093921;28;20047;-73
2022/08/06 00:41:22;;;;;;;8.68;3.38;;;;;;;;;;5093840;28;20048;-73
2022/08/06 00:43:49;;;;;;;8.70;2.85;;;;;;;;;;5093890;28;20481;-73
2022/08/06 00:46:15;;;;;;;3.00;2.35;;;;;;;;;;5093961;28;20040;-73
2022/08/06 00:48:41;;;;;;;9.23;3.95;;;;;;;;;;5093982;28;20075;-73
2022/08/06 00:51:10;;;;;;;7.22;3.60;;;;;;;;;;5094241;28;20040;-73
2022/08/06 00:53:36;;;;;;;8.02;3.17;;;;;;;;;;5093836;28;20036;-73
2022/08/06 00:56:11;;;;;;;5.13;2.80;;;;;;;;;;5094041;28;20036;-73
2022/08/06 00:58:38;;;;;;;10.23;3.40;;;;;;;;;;5100112;28;20154;-73
2022/08/06 01:01:04;;;;;;;6.10;2.92;;;;;;;;;;5095035;28;20036;-73
2022/08/06 01:03:31;;;;;;;4.85;2.88;;;;;;;;;;5093767;28;20050;-73
2022/08/06 01:05:57;;;;;;;4.22;2.63;;;;;;;;;;5093537;28;20506;-73
2022/08/06 01:08:23;;;;;;;6.00;3.20;;;;;;;;;;5097044;28;20044;-73
2022/08/06 01:10:49;;;;;;;5.55;2.70;;;;;;;;;;5100175;28;20035;-73
2022/08/06 01:13:15;;;;;;;7.88;3.20;;;;;;;;;;5093871;28;20575;-73
2022/08/06 01:15:43;;;;;;;8.85;3.45;;;;;;;;;;5099238;28;20165;-73
2022/08/06 01:18:19;;;;;;;5.47;2.75;;;;;;;;;;5098781;28;20044;-73
2022/08/06 01:20:45;;;;;;;6.75;3.35;;;;;;;;;;5097282;28;20042;-73
2022/08/06 01:23:14;;;;;;;7.40;3.47;;;;;;;;;;5097283;28;20491;-73
2022/08/06 01:25:52;;;;;;;7.70;3.35;;;;;;;;;;5097092;28;20094;-73
2022/08/06 01:28:41;;;;;;;9.73;3.70;;;;;;;;;;5096095;28;20475;-73
2022/08/06 01:31:14;;;;;;;7.05;3.65;;;;;;;;;;5087929;28;20166;-73
2022/08/06 01:33:51;;;;;;;7.57;3.10;;;;;;;;;;5096791;28;20048;-73
2022/08/06 01:36:20;;;;;;;6.55;3.58;;;;;;;;;;5110669;28;20047;-73
2022/08/06 01:38:48;;;;;;;6.00;3.30;;;;;;;;;;5109638;28;20097;-73
2022/08/06 01:44:03;;;;;;;8.85;3.20;;;;;;;;;;5116566;28;20050;-73
2022/08/06 01:46:30;;;;;;;7.13;3.45;;;;;;;;;;5103882;28;20032;-73
2022/08/06 01:48:57;;;;;;;5.95;2.72;;;;;;;;;;5116164;28;20046;-73
2022/08/06 01:51:24;;;;;;;6.25;3.05;;;;;;;;;;5116739;28;20047;-73
2022/08/06 01:53:52;;;;;;;9.05;3.15;;;;;;;;;;5117409;27;20039;-73
2022/08/06 01:56:19;;;;;;;9.55;3.63;;;;;;;;;;5112862;28;20059;-73
2022/08/06 01:58:46;;;;;;;11.23;3.35;;;;;;;;;;5115178;28;20114;-73
2022/08/06 02:01:13;;;;;;;9.90;3.42;;;;;;;;;;5105953;28;20044;-73
2022/08/06 02:03:47;;;;;;;9.40;3.05;;;;;;;;;;5113649;28;20043;-73
2022/08/06 02:06:15;;;;;;;6.10;2.90;;;;;;;;;;5101288;28;20039;-73
2022/08/06 02:08:42;;;;;;;5.57;2.80;;;;;;;;;;5113485;28;20058;-73
2022/08/06 02:11:10;;;;;;;8.05;2.97;;;;;;;;;;5116155;28;20034;-73
2022/08/06 02:13:36;;;;;;;7.03;3.05;;;;;;;;;;5115194;28;20047;-73
2022/08/06 02:16:03;;;;;;;7.15;2.65;;;;;;;;;;5104136;28;20570;-73
2022/08/06 02:18:31;;;;;;;7.72;2.83;;;;;;;;;;5108007;28;20039;-73
2022/08/06 02:20:58;;;;;;;5.63;2.67;;;;;;;;;;5115686;28;20044;-73
2022/08/06 02:23:26;;;;;;;8.32;3.15;;;;;;;;;;5104686;28;20502;-73
2022/08/06 02:25:53;;;;;;;7.07;3.22;;;;;;;;;;5106311;28;20051;-73
2022/08/06 02:28:20;;;;;;;9.85;3.17;;;;;;;;;;5116421;28;20034;-73
2022/08/06 02:30:47;;;;;;;7.88;2.75;;;;;;;;;;5114354;28;20048;-73
2022/08/06 02:33:14;;;;;;;8.07;2.90;;;;;;;;;;5115287;28;20096;-73
2022/08/06 02:35:45;;;;;;;11.13;2.80;;;;;;;;;;5115995;28;20039;-73
2022/08/06 02:38:17;;;;;;;6.85;3.30;;;;;;;;;;5114010;28;20573;-73
2022/08/06 02:40:48;;;;;;;6.72;2.67;;;;;;;;;;5115162;27;20088;-73
2022/08/06 02:43:17;;;;;;;7.90;3.30;;;;;;;;;;5116362;28;20043;-73
2022/08/06 02:45:45;;;;;;;5.85;3.00;;;;;;;;;;5116554;28;20054;-73
2022/08/06 02:48:15;;;;;;;7.07;2.78;;;;;;;;;;5110523;28;20074;-73
2022/08/06 02:50:43;;;;;;;5.30;2.63;;;;;;;;;;5096476;28;20048;-73
2022/08/06 02:53:17;;;;;;;9.30;2.92;;;;;;;;;;5096270;28;20040;-73
2022/08/06 02:55:46;;;;;;;4.90;2.47;;;;;;;;;;5110466;28;20066;-73
2022/08/06 02:58:19;;;;;;;6.63;3.10;;;;;;;;;;5114380;28;20067;-73
2022/08/06 03:00:47;;;;;;;7.82;2.85;;;;;;;;;;5098505;28;20064;-73
2022/08/06 03:03:15;;;;;;;11.98;2.90;;;;;;;;;;5115337;28;20039;-73
2022/08/06 03:05:44;;;;;;;6.88;2.75;;;;;;;;;;5094912;28;20036;-73
2022/08/06 03:08:11;;;;;;;8.02;3.08;;;;;;;;;;5110045;28;20165;-73
2022/08/06 03:10:38;;;;;;;6.85;2.80;;;;;;;;;;5097960;28;20028;-75
2022/08/06 03:13:05;;;;;;;7.15;2.60;;;;;;;;;;5108670;28;20101;-73
2022/08/06 03:15:33;;;;;;;7.10;3.13;;;;;;;;;;5099891;28;20115;-73
2022/08/06 03:18:00;;;;;;;5.68;2.42;;;;;;;;;;5096852;28;20044;-73
2022/08/06 03:20:27;;;;;;;6.88;3.25;;;;;;;;;;5105871;28;20036;-73
2022/08/06 03:22:57;;;;;;;6.63;2.80;;;;;;;;;;5108570;28;20081;-73
2022/08/06 03:25:23;;;;;;;6.88;2.92;;;;;;;;;;5115189;28;20073;-73
2022/08/06 03:27:51;;;;;;;5.32;3.00;;;;;;;;;;5115431;28;20046;-73
2022/08/06 03:30:18;;;;;;;5.53;3.03;;;;;;;;;;5096135;28;20043;-73
2022/08/06 03:32:45;;;;;;;8.88;2.92;;;;;;;;;;5114630;28;20044;-73
2022/08/06 03:35:12;;;;;;;6.15;2.78;;;;;;;;;;5115181;28;20513;-73
2022/08/06 03:37:39;;;;;;;8.68;2.70;;;;;;;;;;5114850;28;20039;-73
2022/08/06 03:40:06;;;;;;;7.75;3.13;;;;;;;;;;5096741;28;20071;-73
2022/08/06 03:42:32;;;;;;;6.25;2.40;;;;;;;;;;5094081;28;20051;-73
2022/08/06 03:44:59;;;;;;;7.18;3.33;;;;;;;;;;5094005;28;20409;-73
2022/08/06 03:47:28;;;;;;;7.75;3.20;;;;;;;;;;5111011;28;20566;-73
2022/08/06 03:50:02;;;;;;;6.65;3.03;;;;;;;;;;5094617;28;20066;-73
2022/08/06 03:52:30;;;;;;;8.13;2.88;;;;;;;;;;5095618;28;20062;-73
2022/08/06 03:54:57;;;;;;;6.45;3.67;;;;;;;;;;5094376;28;20414;-73
2022/08/06 03:57:26;;;;;;;10.30;3.30;;;;;;;;;;5111304;28;20040;-73
2022/08/06 03:59:54;;;;;;;6.35;2.75;;;;;;;;;;5110711;28;20139;-73
2022/08/06 04:02:20;;;;;;;6.55;3.03;;;;;;;;;;5094333;28;20111;-73
2022/08/06 04:04:47;;;;;;;6.80;2.90;;;;;;;;;;5095056;28;20054;-73
2022/08/06 04:07:14;;;;;;;5.20;2.50;;;;;;;;;;5103344;28;20047;-73
2022/08/06 04:09:41;;;;;;;7.15;3.00;;;;;;;;;;5105776;28;20498;-73
2022/08/06 04:12:08;;;;;;;6.07;2.70;;;;;;;;;;5114277;28;20518;-73
2022/08/06 04:14:35;;;;;;;7.80;2.95;;;;;;;;;;5114799;28;20047;-73
2022/08/06 04:17:03;;;;;;;7.07;3.13;;;;;;;;;;5102377;28;20036;-73
2022/08/06 04:19:30;;;;;;;4.90;2.67;;;;;;;;;;5098209;28;20047;-73
2022/08/06 04:21:56;;;;;;;6.72;3.20;;;;;;;;;;5112715;28;20119;-73
2022/08/06 04:24:22;;;;;;;7.05;3.08;;;;;;;;;;5095505;28;20079;-73
2022/08/06 04:26:52;;;;;;;5.65;2.70;;;;;;;;;;5094100;28;20036;-73
2022/08/06 04:29:18;;;;;;;7.95;3.10;;;;;;;;;;5094395;28;20040;-73
2022/08/06 04:31:46;;;;;;;5.15;3.00;;;;;;;;;;5111948;28;20031;-73
2022/08/06 04:34:12;;;;;;;6.93;3.15;;;;;;;;;;5114786;28;20039;-73
2022/08/06 04:36:38;;;;;;;10.27;3.33;;;;;;;;;;5114121;28;20047;-73
2022/08/06 04:39:05;;;;;;;5.88;2.90;;;;;;;;;;5114078;28;20130;-73
2022/08/06 04:41:31;;;;;;;15.00;3.22;;;;;;;;;;5098371;28;20138;-73
2022/08/06 04:43:57;;;;;;;8.50;2.92;;;;;;;;;;5095074;28;20040;-73
2022/08/06 04:46:24;;;;;;;13.18;3.85;;;;;;;;;;5095133;28;20083;-73
2022/08/06 04:48:50;;;;;;;7.40;2.65;;;;;;;;;;5094170;28;20044;-73
2022/08/06 04:51:16;;;;;;;5.88;3.17;;;;;;;;;;5107172;28;20506;-73
2022/08/06 04:53:42;;;;;;;4.93;3.20;;;;;;;;;;5113847;28;20048;-73
2022/08/06 04:56:10;;;;;;;9.77;3.08;;;;;;;;;;5093831;28;20074;-73
2022/08/06 04:58:36;;;;;;;8.27;3.45;;;;;;;;;;5097867;28;20225;-73
2022/08/06 05:01:02;;;;;;;9.48;3.42;;;;;;;;;;5109156;28;20044;-73
2022/08/06 05:03:29;;;;;;;6.18;3.28;;;;;;;;;;5118193;27;20035;-73
2022/08/06 05:06:09;;;;;;;10.73;3.35;;;;;;;;;;5118377;28;20083;-73
2022/08/06 05:08:37;;;;;;;10.15;3.35;;;;;;;;;;5119159;28;20044;-73
2022/08/06 05:11:06;;;;;;;6.13;2.72;;;;;;;;;;5106504;28;20040;-73
2022/08/06 05:13:35;;;;;;;7.07;3.10;;;;;;;;;;5096226;28;20067;-73
2022/08/06 05:16:04;;;;;;;6.57;3.28;;;;;;;;;;5097980;28;20048;-73
2022/08/06 05:18:50;;;;;;;7.53;3.00;;;;;;;;;;5100825;28;20502;-73
2022/08/06 05:21:19;;;;;;;6.85;3.33;;;;;;;;;;5107515;28;20044;-72
2022/08/06 05:23:47;;;;;;;6.03;3.05;;;;;;;;;;5104849;28;20044;-73
2022/08/06 05:26:14;;;;;;;8.60;2.97;;;;;;;;;;5109584;28;20044;-73
2022/08/06 05:28:40;;;;;;;5.55;3.20;;;;;;;;;;5097508;28;20066;-73
2022/08/06 05:31:07;;;;;;;5.95;3.30;;;;;;;;;;5097396;28;20047;-73
2022/08/06 05:33:36;;;;;;;11.23;3.30;;;;;;;;;;5117697;28;20039;-73
2022/08/06 05:36:03;;;;;;;5.30;3.15;;;;;;;;;;5110935;28;20048;-73
2022/08/06 05:38:30;;;;;;;4.18;3.10;;;;;;;;;;5111284;28;20528;-73
2022/08/06 05:40:56;;;;;;;7.38;2.97;;;;;;;;;;5114365;28;20079;-73
2022/08/06 05:43:22;;;;;;;6.57;3.10;;;;;;;;;;5100239;28;20047;-73
2022/08/06 05:45:50;;;;;;;8.35;2.85;;;;;;;;;;5114321;28;20066;-73
2022/08/06 05:48:18;;;;;;;6.03;3.25;;;;;;;;;;5117070;27;20036;-73
2022/08/06 05:50:50;;;;;;;10.32;2.83;;;;;;;;;;5108943;28;20031;-73
2022/08/06 05:53:34;;;;;;;7.95;2.80;;;;;;;;;;5110002;28;20043;-73
2022/08/06 05:56:07;;;;;;;4.72;2.58;;;;;;;;;;5096645;28;20123;-73
2022/08/06 05:58:45;;;;;;;4.32;2.63;;;;;;;;;;5097181;28;20044;-73
2022/08/06 06:01:13;;;;;;;7.85;2.90;;;;;;;;;;5096383;28;20040;-73
2022/08/06 06:03:40;;;;;;;6.20;2.30;;;;;;;;;;5112469;28;20047;-73
2022/08/06 06:06:06;;;;;;;5.82;2.13;;;;;;;;;;5116365;28;20044;-73
2022/08/06 06:08:32;;;;;;;7.13;2.88;;;;;;;;;;5115844;28;20551;-73
2022/08/06 06:10:59;;;;;;;5.65;2.72;;;;;;;;;;5113313;28;20040;-73
2022/08/06 06:13:25;;;;;;;4.97;2.35;;;;;;;;;;5109980;28;20134;-74
2022/08/06 06:15:58;;;;;;;4.97;2.20;;;;;;;;;;5116597;28;20089;-73
2022/08/06 06:18:41;;;;;;;7.30;2.75;;;;;;;;;;5115390;28;20049;-73
2022/08/06 06:21:07;;;;;;;10.13;2.55;;;;;;;;;;5116048;28;20039;-73
2022/08/06 06:23:39;;;;;;;4.93;2.55;;;;;;;;;;5104190;28;20044;-74
2022/08/06 06:26:14;;;;;;;6.15;2.40;;;;;;;;;;5112613;28;20048;-74
2022/08/06 06:28:59;;;;;;;3.83;2.33;;;;;;;;;;5115898;28;20070;-74
2022/08/06 06:31:28;;;;;;;4.22;2.05;;;;;;;;;;5115809;28;20096;-74
2022/08/06 06:33:54;;;;;;;6.03;2.65;;;;;;;;;;5099721;28;20044;-74
2022/08/06 06:36:26;;;;;;;3.38;2.03;;;;;;;;;;5075591;28;20094;-74
2022/08/06 06:39:09;;;;;;;6.90;2.70;;;;;;;;;;5082443;28;20043;-73
2022/08/06 06:41:35;;;;;;;6.88;2.35;;;;;;;;;;5116366;28;20131;-73
2022/08/06 06:44:15;;;;;;;5.18;2.80;;;;;;;;;;5099708;28;20040;-74
2022/08/06 06:46:46;;;;;;;3.65;1.83;;;;;;;;;;5109027;28;20048;-74
2022/08/06 06:49:27;;;;;;;4.53;2.35;;;;;;;;;;5096528;28;20132;-73
2022/08/06 06:51:55;;;;;;;3.92;2.50;;;;;;;;;;5097197;28;20538;-74
2022/08/06 06:54:33;;;;;;;5.30;2.60;;;;;;;;;;5110112;28;20098;-74
2022/08/06 06:57:00;;;;;;;6.22;2.75;;;;;;;;;;5114799;28;20044;-74
2022/08/06 06:59:31;;;;;;;5.78;2.10;;;;;;;;;;5101838;28;20116;-74
2022/08/06 07:01:58;;;;;;;5.10;2.30;;;;;;;;;;5115514;28;20479;-72
2022/08/06 07:04:25;;;;;;;6.00;2.50;;;;;;;;;;5102259;28;20047;-73
2022/08/06 07:06:54;;;;;;;5.30;2.30;;;;;;;;;;5094406;28;20035;-73
2022/08/06 07:09:24;;;;;;;5.28;2.67;;;;;;;;;;5100237;28;20063;-74
2022/08/06 07:11:52;;;;;;;5.03;2.50;;;;;;;;;;5105539;28;20044;-72
2022/08/06 07:14:22;;;;;;;7.03;2.60;;;;;;;;;;5095001;28;20048;-72
2022/08/06 07:16:49;;;;;;;5.93;3.05;;;;;;;;;;5094063;28;20039;-73
2022/08/06 07:19:17;;;;;;;4.72;2.17;;;;;;;;;;5100831;28;20092;-72
2022/08/06 07:21:43;;;;;;;3.85;2.45;;;;;;;;;;5105349;28;20043;-73
2022/08/06 07:24:11;;;;;;;6.90;2.65;;;;;;;;;;5095964;28;20113;-72
2022/08/06 07:26:38;;;;;;;4.95;2.63;;;;;;;;;;5102256;28;20122;-72
2022/08/06 07:29:04;;;;;;;5.30;2.35;;;;;;;;;;5098961;28;20543;-72
2022/08/06 07:31:33;;;;;;;6.85;2.40;;;;;;;;;;5094171;28;20046;-73
2022/08/06 07:34:00;;;;;;;4.82;2.72;;;;;;;;;;5095974;28;20040;-72
2022/08/06 07:36:27;;;;;;;4.72;2.83;;;;;;;;;;5094935;28;20164;-71
2022/08/06 07:38:59;;;;;;;6.07;2.75;;;;;;;;;;5093978;28;20047;-71
2022/08/06 07:41:26;;;;;;;4.40;2.50;;;;;;;;;;5098307;28;20056;-71
2022/08/06 07:43:54;;;;;;;7.93;2.75;;;;;;;;;;5094923;28;20124;-71
2022/08/06 07:46:23;;;;;;;3.30;2.45;;;;;;;;;;5102564;28;20056;-70
2022/08/06 07:48:54;;;;;;;8.90;2.92;;;;;;;;;;5098346;28;20090;-72
2022/08/06 07:51:23;;;;;;;5.40;2.67;;;;;;;;;;5114775;28;20048;-72
2022/08/06 07:53:50;;;;;;;4.95;2.25;;;;;;;;;;5107757;28;20090;-72
2022/08/06 07:56:17;;;;;;;6.10;2.75;;;;;;;;;;5114954;28;20486;-72
2022/08/06 07:58:44;;;;;;;8.07;2.90;;;;;;;;;;5113894;28;20036;-72
2022/08/06 08:01:11;;;;;;;6.03;3.13;;;;;;;;;;5085849;28;20048;-72
2022/08/06 08:06:23;;;;;;;8.10;2.90;;;;;;;;;;5083933;28;20114;-72
2022/08/06 08:08:51;;;;;;;6.13;3.05;;;;;;;;;;5095445;28;20031;-72
2022/08/06 08:11:18;;;;;;;7.18;2.80;;;;;;;;;;5090921;28;20063;-72
2022/08/06 08:13:44;;;;;;;4.68;2.83;;;;;;;;;;5094365;28;20089;-72
2022/08/06 08:16:13;;;;;;;6.95;2.85;;;;;;;;;;5093796;28;20039;-73
2022/08/06 08:18:40;;;;;;;6.97;3.03;;;;;;;;;;5102432;28;20036;-72
2022/08/06 08:21:06;;;;;;;6.07;2.53;;;;;;;;;;5113485;28;20035;-72
2022/08/06 08:23:33;;;;;;;10.75;2.80;;;;;;;;;;5107790;28;20048;-72
2022/08/06 08:26:00;;;;;;;5.95;2.88;;;;;;;;;;5094750;28;20558;-72
2022/08/06 08:28:26;;;;;;;8.32;2.95;;;;;;;;;;5096047;28;20044;-72
2022/08/06 08:30:53;;;;;;;4.53;2.40;;;;;;;;;;5106977;28;20134;-72
2022/08/06 08:33:19;;;;;;;10.27;2.80;;;;;;;;;;5115774;28;20120;-72
2022/08/06 08:35:46;;;;;;;5.25;2.67;;;;;;;;;;5098159;28;20062;-72
2022/08/06 08:38:12;;;;;;;6.43;2.90;;;;;;;;;;5109228;28;20039;-72
2022/08/06 08:40:39;;;;;;;6.32;2.63;;;;;;;;;;5117818;28;20506;-73
2022/08/06 08:43:07;;;;;;;6.50;2.70;;;;;;;;;;5116611;28;20077;-72
2022/08/06 08:45:34;;;;;;;5.43;3.38;;;;;;;;;;5117310;28;20047;-72
2022/08/06 08:48:01;;;;;;;5.43;2.60;;;;;;;;;;5118648;28;20032;-72
2022/08/06 08:50:31;;;;;;;6.07;2.60;;;;;;;;;;5102785;28;20059;-72
2022/08/06 08:53:05;;;;;;;6.00;2.90;;;;;;;;;;5101349;28;20040;-72
2022/08/06 08:55:31;;;;;;;8.18;2.70;;;;;;;;;;5115617;28;20063;-72
2022/08/06 08:57:58;;;;;;;6.90;2.65;;;;;;;;;;5106355;28;20039;-72
2022/08/06 09:00:24;;;;;;;7.90;3.20;;;;;;;;;;5112585;28;20200;-72
2022/08/06 09:02:51;;;;;;;6.38;2.83;;;;;;;;;;5102600;28;20035;-72
2022/08/06 09:05:17;;;;;;;7.03;2.70;;;;;;;;;;5112904;28;20052;-72
2022/08/06 09:07:44;;;;;;;6.47;2.97;;;;;;;;;;5099067;28;20194;-72
2022/08/06 09:10:10;;;;;;;7.22;3.10;;;;;;;;;;5098396;28;20050;-73
2022/08/06 09:12:37;;;;;;;7.68;2.58;;;;;;;;;;5105909;28;20058;-73
2022/08/06 09:15:04;;;;;;;9.20;8.10;;;;;;;;;;5104152;28;20440;-73
2022/08/06 09:17:30;;;;;;;25.85;22.83;;;;;;;;;;5114592;27;20074;-73
2022/08/06 09:19:56;;;;;;;19.40;14.98;;;;;;;;;;5109976;28;20161;-73
2022/08/06 09:22:23;;;;;;;16.67;13.20;;;;;;;;;;5097324;28;20036;-73
2022/08/06 09:24:49;;;;;;;6.95;3.45;;;;;;;;;;5097337;28;20048;-72
2022/08/06 09:27:16;;;;;;;7.70;4.20;;;;;;;;;;5098371;28;20043;-71
2022/08/06 09:29:48;;;;;;;7.28;3.30;;;;;;;;;;5097606;28;20128;-70
2022/08/06 09:32:34;;;;;;;8.35;3.17;;;;;;;;;;5096887;28;20127;-71
2022/08/06 09:35:01;;;;;;;14.88;6.85;;;;;;;;;;5097268;28;20048;-69
2022/08/06 09:37:27;;;;;;;14.35;6.75;;;;;;;;;;5097037;28;20115;-69
2022/08/06 09:39:54;;;;;;;13.57;5.97;;;;;;;;;;5096244;28;20067;-70
2022/08/06 09:42:38;;;;;;;7.78;3.92;;;;;;;;;;5097146;28;20051;-70
2022/08/06 09:45:08;;;;;;;5.55;3.03;;;;;;;;;;5096892;28;20040;-70
2022/08/06 09:47:36;;;;;;;9.57;3.60;;;;;;;;;;5097686;28;20088;-70
2022/08/06 09:50:04;;;;;;;8.30;3.85;;;;;;;;;;5097399;28;20273;-70
2022/08/06 09:52:30;;;;;;;9.77;3.20;;;;;;;;;;5095242;28;20410;-69
2022/08/06 09:54:56;;;;;;;5.60;3.15;;;;;;;;;;5096110;28;20097;-70
2022/08/06 09:57:23;;;;;;;5.35;2.85;;;;;;;;;;5096508;28;20043;-70
2022/08/06 09:59:49;;;;;;;6.40;2.95;;;;;;;;;;5095985;28;20529;-70
2022/08/06 10:02:26;;;;;;;5.15;2.95;;;;;;;;;;5094496;28;20108;-72
2022/08/06 10:04:52;;;;;;;6.20;3.05;;;;;;;;;;5095300;28;20055;-72
2022/08/06 10:07:30;;;;;;;6.20;2.90;;;;;;;;;;5095499;28;20121;-71
2022/08/06 10:09:57;;;;;;;7.13;2.80;;;;;;;;;;5098262;28;20044;-71
2022/08/06 10:12:24;;;;;;;5.95;2.70;;;;;;;;;;5095232;28;20048;-71
2022/08/06 10:14:50;;;;;;;3.40;2.92;;;;;;;;;;5094679;28;20109;-71
2022/08/06 10:17:18;;;;;;;5.05;3.15;;;;;;;;;;5095150;28;20036;-71
2022/08/06 10:19:45;;;;;;;6.35;3.03;;;;;;;;;;5094946;28;20510;-71
2022/08/06 10:22:13;;;;;;;6.20;2.88;;;;;;;;;;5094899;28;20071;-71
2022/08/06 10:24:46;;;;;;;6.47;3.20;;;;;;;;;;5099219;28;20128;-71
2022/08/06 10:27:23;;;;;;;5.63;2.78;;;;;;;;;;5094131;28;20097;-71
2022/08/06 10:29:54;;;;;;;4.93;2.95;;;;;;;;;;5097782;28;20044;-71
2022/08/06 10:32:29;;;;;;;7.68;3.22;;;;;;;;;;5094767;28;20057;-71
2022/08/06 10:34:56;;;;;;;4.80;3.40;;;;;;;;;;5088698;28;20044;-71
2022/08/06 10:37:23;;;;;;;5.90;3.15;;;;;;;;;;5094645;28;20035;-71
2022/08/06 10:39:52;;;;;;;4.88;3.20;;;;;;;;;;5096975;28;20028;-72
2022/08/06 10:42:18;;;;;;;9.85;5.55;;;;;;;;;;5093703;28;20063;-73
2022/08/06 10:44:45;;;;;;;7.32;3.13;;;;;;;;;;5091386;28;20047;-74
2022/08/06 10:47:12;;;;;;;7.63;3.30;;;;;;;;;;5086001;28;20090;-76
2022/08/06 10:49:38;;;;;;;8.65;5.30;;;;;;;;;;5103173;28;20042;-74
2022/08/06 10:52:04;;;;;;;12.77;7.60;;;;;;;;;;5096588;28;20115;-70
2022/08/06 10:54:31;;;;;;;17.77;12.68;;;;;;;;;;5096641;28;20056;-73
2022/08/06 10:56:58;;;;;;;10.00;8.70;;;;;;;;;;5097296;28;20114;-73
2022/08/06 10:59:24;;;;;;;12.68;6.65;;;;;;;;;;5097746;28;20131;-80
2022/08/06 11:01:55;;;;;;;9.23;6.38;;;;;;;;;;5092952;28;20127;-79
2022/08/06 11:04:30;;;;;;;5.95;3.97;;;;;;;;;;5092553;28;20044;-74
2022/08/06 11:06:59;;;;;;;5.13;4.03;;;;;;;;;;5099670;28;20053;-76
2022/08/06 11:09:32;;;;;;;5.80;4.00;;;;;;;;;;5094460;28;20052;-74
2022/08/06 11:12:18;;;;;;;7.40;3.33;;;;;;;;;;5082002;28;20040;-71
2022/08/06 11:14:44;;;;;;;6.18;3.45;;;;;;;;;;5093150;28;20127;-71
2022/08/06 11:17:11;;;;;;;11.75;3.97;;;;;;;;;;5095538;28;20040;-71
2022/08/06 11:19:40;;;;;;;4.68;3.17;;;;;;;;;;5102794;28;20040;-71
2022/08/06 11:22:07;;;;;;;5.03;2.90;;;;;;;;;;5097454;28;20101;-71
2022/08/06 11:24:33;;;;;;;5.82;3.00;;;;;;;;;;5093084;28;20526;-70
2022/08/06 11:26:59;;;;;;;5.88;3.22;;;;;;;;;;5095725;28;20514;-70
2022/08/06 11:29:25;;;;;;;4.57;3.10;;;;;;;;;;5097886;28;20127;-69
2022/08/06 11:31:52;;;;;;;5.47;2.80;;;;;;;;;;5103228;28;20498;-77
2022/08/06 11:34:19;;;;;;;11.30;3.38;;;;;;;;;;5097280;28;20050;-68
2022/08/06 11:36:53;;;;;;;5.70;3.08;;;;;;;;;;5093853;28;20044;-68
2022/08/06 11:39:20;;;;;;;9.02;2.55;;;;;;;;;;5083819;28;20060;-69
2022/08/06 11:41:56;;;;;;;5.85;3.28;;;;;;;;;;5098831;28;20137;-69
2022/08/06 11:44:34;;;;;;;4.22;3.22;;;;;;;;;;5094067;28;20047;-69
2022/08/06 11:47:09;;;;;;;7.38;3.10;;;;;;;;;;5095342;28;20056;-72
2022/08/06 11:49:40;;;;;;;8.18;3.35;;;;;;;;;;5093679;28;20064;-72
2022/08/06 11:52:07;;;;;;;3.38;2.90;;;;;;;;;;5093932;28;20039;-75
2022/08/06 11:54:45;;;;;;;10.93;3.33;;;;;;;;;;5094339;28;20048;-75
2022/08/06 11:57:11;;;;;;;6.65;3.42;;;;;;;;;;5093086;28;20047;-73
2022/08/06 11:59:49;;;;;;;6.53;3.42;;;;;;;;;;5093811;28;20035;-73
2022/08/06 12:02:17;;;;;;;8.30;3.25;;;;;;;;;;5093023;28;20521;-69
2022/08/06 12:04:44;;;;;;;8.90;3.38;;;;;;;;;;5104443;28;20092;-69
2022/08/06 12:07:16;;;;;;;4.85;2.88;;;;;;;;;;5111186;28;20050;-75
2022/08/06 12:09:42;;;;;;;9.45;3.22;;;;;;;;;;5094760;28;20063;-69
2022/08/06 12:12:33;;;;;;;7.03;3.03;;;;;;;;;;5106292;28;20498;-69
2022/08/06 12:15:03;;;;;;;4.88;3.10;;;;;;;;;;5110105;28;20074;-71
2022/08/06 12:17:30;;;;;;;6.20;2.83;;;;;;;;;;5101309;28;20075;-74
2022/08/06 12:19:58;;;;;;;20.98;3.70;;;;;;;;;;5094264;28;20033;-73
2022/08/06 12:22:24;;;;;;;6.55;2.65;;;;;;;;;;5100608;28;20035;-72
2022/08/06 12:24:54;;;;;;;9.52;3.05;;;;;;;;;;5085975;28;20073;-71
2022/08/06 12:27:24;;;;;;;6.45;2.85;;;;;;;;;;5094441;28;20040;-71
2022/08/06 12:29:56;;;;;;;9.98;3.00;;;;;;;;;;5101874;28;20042;-71
2022/08/06 12:32:25;;;;;;;4.25;2.90;;;;;;;;;;5114422;28;20118;-72
2022/08/06 12:34:52;;;;;;;6.13;2.70;;;;;;;;;;5104620;28;20040;-71
2022/08/06 12:37:19;;;;;;;6.18;3.05;;;;;;;;;;5093716;28;20036;-71
2022/08/06 12:42:31;;;;;;;5.03;2.47;;;;;;;;;;5093849;28;20086;-71
2022/08/06 12:44:57;;;;;;;7.43;2.80;;;;;;;;;;5101363;28;20120;-71
2022/08/06 12:47:25;;;;;;;6.53;3.10;;;;;;;;;;5114612;28;20096;-71
2022/08/06 12:49:53;;;;;;;5.95;2.83;;;;;;;;;;5114097;28;20066;-71
2022/08/06 12:52:20;;;;;;;4.55;2.70;;;;;;;;;;5106459;28;20040;-71
2022/08/06 12:54:47;;;;;;;5.38;2.95;;;;;;;;;;5094071;28;20044;-70
2022/08/06 12:57:22;;;;;;;5.25;2.83;;;;;;;;;;5094442;28;20048;-71
2022/08/06 12:59:51;;;;;;;4.65;2.88;;;;;;;;;;5095432;28;20055;-71
2022/08/06 13:02:19;;;;;;;5.30;2.58;;;;;;;;;;5100799;28;20048;-72
2022/08/06 13:04:48;;;;;;;5.25;3.13;;;;;;;;;;5092165;28;20046;-72
2022/08/06 13:07:15;;;;;;;6.35;3.50;;;;;;;;;;5092261;28;20040;-71
2022/08/06 13:09:42;;;;;;;3.83;2.80;;;;;;;;;;5097206;28;20051;-72
2022/08/06 13:12:12;;;;;;;7.95;2.83;;;;;;;;;;5093376;28;20040;-72
2022/08/06 13:14:59;;;;;;;10.77;3.47;;;;;;;;;;5096564;28;20118;-72
2022/08/06 13:17:26;;;;;;;8.00;2.85;;;;;;;;;;5093033;28;20035;-72
2022/08/06 13:19:56;;;;;;;9.60;3.30;;;;;;;;;;5112971;28;20494;-72
2022/08/06 13:22:22;;;;;;;6.35;2.63;;;;;;;;;;5090061;28;20047;-72
2022/08/06 13:24:49;;;;;;;4.35;2.80;;;;;;;;;;5089501;28;20150;-72
2022/08/06 13:27:15;;;;;;;3.90;2.75;;;;;;;;;;5097012;28;20498;-72
2022/08/06 13:30:01;;;;;;;8.77;2.92;;;;;;;;;;5100565;28;20040;-72
2022/08/06 13:32:27;;;;;;;6.00;3.47;;;;;;;;;;5116259;28;20035;-72
2022/08/06 13:34:55;;;;;;;6.38;3.15;;;;;;;;;;5116394;28;20043;-72
2022/08/06 13:37:40;;;;;;;4.32;2.70;;;;;;;;;;5115504;28;20050;-72
2022/08/06 13:40:06;;;;;;;5.55;3.13;;;;;;;;;;5109956;28;20066;-72
2022/08/06 13:42:33;;;;;;;4.28;2.83;;;;;;;;;;5112435;28;20051;-72
2022/08/06 13:44:59;;;;;;;4.40;3.00;;;;;;;;;;5116068;28;20047;-73
2022/08/06 13:47:29;;;;;;;7.53;2.78;;;;;;;;;;5115174;28;20048;-73
2022/08/06 13:49:55;;;;;;;7.23;3.27;;;;;;;;;;5085125;28;20028;-73
2022/08/06 13:52:21;;;;;;;6.47;3.38;;;;;;;;;;5095934;28;20043;-72
2022/08/06 13:54:49;;;;;;;6.30;2.97;;;;;;;;;;5095773;28;20426;-72
2022/08/06 13:57:16;;;;;;;6.90;3.10;;;;;;;;;;5108650;28;20497;-72
2022/08/06 13:59:42;;;;;;;6.95;2.95;;;;;;;;;;5097376;28;20036;-72
2022/08/06 14:02:08;;;;;;;8.48;3.28;;;;;;;;;;5101638;28;20040;-72
2022/08/06 14:04:34;;;;;;;5.10;2.95;;;;;;;;;;5101751;28;20078;-70
2022/08/06 14:07:00;;;;;;;4.68;2.80;;;;;;;;;;5096280;28;20051;-73
2022/08/06 14:09:28;;;;;;;6.70;2.83;;;;;;;;;;5095378;28;20069;-71
2022/08/06 14:11:59;;;;;;;5.70;3.00;;;;;;;;;;5096037;28;20078;-71
2022/08/06 14:14:26;;;;;;;4.55;2.60;;;;;;;;;;5095282;28;20048;-71
2022/08/06 14:16:53;;;;;;;4.07;2.50;;;;;;;;;;5095833;28;20081;-71
2022/08/06 14:19:19;;;;;;;4.53;3.20;;;;;;;;;;5095227;28;20066;-71
2022/08/06 14:21:45;;;;;;;10.98;2.92;;;;;;;;;;5094797;28;20063;-71
2022/08/06 14:24:11;;;;;;;4.82;3.00;;;;;;;;;;5095441;28;20047;-71
2022/08/06 14:26:38;;;;;;;6.60;2.80;;;;;;;;;;5094741;28;20043;-71
2022/08/06 14:29:04;;;;;;;6.50;2.90;;;;;;;;;;5095775;28;20094;-71
2022/08/06 14:31:33;;;;;;;4.57;2.78;;;;;;;;;;5095465;28;20074;-71
2022/08/06 14:34:00;;;;;;;4.38;2.97;;;;;;;;;;5095148;28;20123;-72
2022/08/06 14:36:27;;;;;;;10.73;3.35;;;;;;;;;;5094901;28;20036;-72
2022/08/06 14:38:54;;;;;;;7.05;2.70;;;;;;;;;;5095335;28;20036;-72
2022/08/06 14:46:49;;;;;;;7.22;2.83;;;;;;;;;;5094627;28;20047;-72
2022/08/06 14:49:15;;;;;;;6.18;2.88;;;;;;;;;;5095027;28;20504;-72
2022/08/06 14:51:42;;;;;;;5.65;3.15;;;;;;;;;;5094965;28;20035;-72
2022/08/06 14:54:08;;;;;;;8.32;3.20;;;;;;;;;;5095122;28;20044;-72
2022/08/06 14:56:34;;;;;;;6.47;2.88;;;;;;;;;;5095204;28;20038;-72
2022/08/06 14:59:00;;;;;;;9.43;3.33;;;;;;;;;;5095448;28;20040;-72
2022/08/06 15:01:26;;;;;;;6.45;2.70;;;;;;;;;;5094320;28;20036;-72
2022/08/06 15:03:53;;;;;;;8.45;2.92;;;;;;;;;;5094499;28;20050;-72